SWR5155 LSZH-LSGG
Flight info
| Callsign | SWR5155 |
|---|---|
| Flight time | N/A |
| Altitude | 18000 |
| Route | VEBIT T50 ROTOS Z669 ULMES |
| Aircraft | A343/H-SDE2E3FGHIJ4J5M1RWXY/LB1D1 |
Departure
| Time | 2026-04-30 20:40 |
|---|---|
| Airport | Zürich Airport (LSZH) |
Arrival
| Time | N/A |
|---|---|
| Airport | Geneva International Airport (LSGG) |
| Time | Latitude | Longitude | Altitude | Speed | Heading |
|---|---|---|---|---|---|
| 2026-04-30 20:23 | 47.45033 | 8.55857 | 1412 ft | 0 kts | 6° |
| 2026-04-30 20:26 | 47.45032 | 8.55857 | 1409 ft | 2 kts | 6° |
| 2026-04-30 20:26 | 47.45000 | 8.55851 | 1412 ft | 2 kts | 6° |
| 2026-04-30 20:26 | 47.44984 | 8.55848 | 1406 ft | 2 kts | 358° |
| 2026-04-30 20:27 | 47.44954 | 8.55865 | 1414 ft | 2 kts | 302° |
| 2026-04-30 20:27 | 47.44951 | 8.55870 | 1414 ft | 0 kts | 277° |
| 2026-04-30 20:30 | 47.44955 | 8.55753 | 1409 ft | 18 kts | 276° |
| 2026-04-30 20:30 | 47.45503 | 8.55305 | 1410 ft | 43 kts | 335° |
| 2026-04-30 20:31 | 47.46284 | 8.54761 | 1387 ft | 51 kts | 332° |
| 2026-04-30 20:32 | 47.47371 | 8.54026 | 1404 ft | 63 kts | 335° |
| 2026-04-30 20:32 | 47.47609 | 8.53760 | 1404 ft | 17 kts | 263° |
| 2026-04-30 20:33 | 47.47508 | 8.53651 | 1405 ft | 12 kts | 160° |
| 2026-04-30 20:33 | 47.47557 | 8.53764 | 1406 ft | 11 kts | 27° |
| 2026-04-30 20:33 | 47.47601 | 8.53784 | 1409 ft | 2 kts | 338° |
| 2026-04-30 20:34 | 47.47603 | 8.53779 | 1407 ft | 0 kts | 322° |
| 2026-04-30 20:34 | 47.47605 | 8.53776 | 1406 ft | 0 kts | 319° |
| 2026-04-30 20:38 | 47.47606 | 8.53774 | 1406 ft | 0 kts | 314° |
| 2026-04-30 20:38 | 47.47613 | 8.53754 | 1405 ft | 6 kts | 293° |
| 2026-04-30 20:38 | 47.47589 | 8.53668 | 1410 ft | 13 kts | 224° |
| 2026-04-30 20:39 | 47.47008 | 8.53992 | 1384 ft | 117 kts | 153° |
| 2026-04-30 20:39 | 47.46048 | 8.54652 | 1413 ft | 192 kts | 155° |
| 2026-04-30 20:39 | 47.44664 | 8.55474 | 1989 ft | 225 kts | 157° |
| 2026-04-30 20:40 | 47.41281 | 8.57222 | 3786 ft | 280 kts | 159° |
| 2026-04-30 20:40 | 47.39270 | 8.58144 | 4428 ft | 316 kts | 161° |
| 2026-04-30 20:40 | 47.37039 | 8.59082 | 4670 ft | 366 kts | 163° |
| 2026-04-30 20:41 | 47.31666 | 8.61060 | 4994 ft | 398 kts | 166° |
| 2026-04-30 20:41 | 47.29120 | 8.61858 | 4991 ft | 371 kts | 167° |
| 2026-04-30 20:41 | 47.26663 | 8.62521 | 4983 ft | 347 kts | 169° |
| 2026-04-30 20:41 | 47.24434 | 8.62746 | 5814 ft | 295 kts | 181° |
| 2026-04-30 20:42 | 47.22332 | 8.62324 | 5668 ft | 294 kts | 200° |
| 2026-04-30 20:42 | 47.20720 | 8.60859 | 6168 ft | 293 kts | 223° |
| 2026-04-30 20:42 | 47.19668 | 8.56026 | 5794 ft | 281 kts | 282° |
| 2026-04-30 20:43 | 47.20518 | 8.53476 | 5359 ft | 283 kts | 303° |
| 2026-04-30 20:43 | 47.21607 | 8.51117 | 5089 ft | 273 kts | 301° |
| 2026-04-30 20:43 | 47.22361 | 8.48591 | 5125 ft | 273 kts | 287° |
| 2026-04-30 20:44 | 47.23187 | 8.43158 | 5565 ft | 283 kts | 285° |
| 2026-04-30 20:44 | 47.24283 | 8.40831 | 5410 ft | 272 kts | 324° |
| 2026-04-30 20:44 | 47.26758 | 8.39262 | 5070 ft | 274 kts | 334° |